Time;durP1;ratioP1;P1;durP2;ratioP2;P2;SDS_P1;SDS_P2;PMS_P1;PMS_P2;Temp;Humidity;BMP_temperature;BMP_pressure;BME280_temperature;BME280_humidity;BME280_pressure;Samples;Min_cycle;Max_cycle;Signal;HPM_P1;HPM_P2
2022/12/20 00:01:19;;;;;;;11.23;5.22;;;8.80;99.90;;;;;;5036985;28;20055;-83
2022/12/20 00:03:47;;;;;;;9.18;5.45;;;9.10;99.90;;;;;;5036991;28;20052;-82
2022/12/20 00:06:13;;;;;;;13.18;5.50;;;8.70;99.90;;;;;;5035612;28;20481;-83
2022/12/20 00:08:40;;;;;;;9.57;4.80;;;8.80;99.90;;;;;;5066097;28;20040;-83
2022/12/20 00:11:07;;;;;;;11.50;5.22;;;8.80;99.90;;;;;;5040094;28;20036;-83
2022/12/20 00:13:33;;;;;;;12.75;5.53;;;9.10;99.90;;;;;;5030594;28;20147;-83
2022/12/20 00:16:11;;;;;;;12.10;6.03;;;8.80;99.90;;;;;;5038882;28;20033;-83
2022/12/20 00:18:38;;;;;;;10.27;5.50;;;8.70;99.90;;;;;;5040306;28;20060;-84
2022/12/20 00:21:06;;;;;;;14.52;5.45;;;8.90;99.90;;;;;;5035739;28;20117;-83
2022/12/20 00:23:32;;;;;;;10.70;5.00;;;9.00;99.90;;;;;;5035545;28;20049;-83
2022/12/20 00:26:13;;;;;;;9.27;5.05;;;8.50;99.90;;;;;;5062183;28;20037;-82
2022/12/20 00:28:40;;;;;;;11.13;5.63;;;8.50;99.90;;;;;;5033515;28;20032;-83
2022/12/20 00:31:07;;;;;;;12.52;5.10;;;8.60;99.90;;;;;;5034656;28;20048;-81
2022/12/20 00:33:34;;;;;;;16.65;5.10;;;8.80;99.90;;;;;;5033012;28;20037;-83
2022/12/20 00:35:59;;;;;;;13.45;5.30;;;8.90;99.90;;;;;;5037231;28;20037;-81
2022/12/20 00:38:26;;;;;;;9.50;4.78;;;8.80;99.90;;;;;;5035668;28;20045;-82
2022/12/20 00:41:07;;;;;;;8.25;4.53;;;8.70;99.90;;;;;;5031146;28;20118;-81
2022/12/20 00:43:34;;;;;;;10.40;4.70;;;8.60;99.90;;;;;;5036175;28;20048;-84
2022/12/20 00:46:00;;;;;;;8.75;4.70;;;8.60;99.90;;;;;;5065671;28;20503;-85
2022/12/20 00:48:28;;;;;;;7.60;4.65;;;8.80;99.90;;;;;;5029758;28;20400;-82
2022/12/20 00:51:15;;;;;;;8.82;4.68;;;8.70;99.90;;;;;;5039397;28;20067;-84
2022/12/20 00:53:42;;;;;;;8.50;4.80;;;8.60;99.90;;;;;;5039452;28;20067;-83
2022/12/20 00:56:08;;;;;;;9.43;4.40;;;8.60;99.90;;;;;;5029933;28;20153;-85
2022/12/20 00:58:36;;;;;;;11.32;5.20;;;8.70;99.90;;;;;;5030748;28;20048;-84
2022/12/20 01:01:04;;;;;;;7.22;4.63;;;8.70;99.90;;;;;;5031037;28;20526;-81
2022/12/20 01:03:29;;;;;;;7.35;4.75;;;8.60;99.90;;;;;;5028284;28;20141;-81
2022/12/20 01:06:00;;;;;;;11.60;4.38;;;8.40;99.90;;;;;;5008131;28;20083;-83
2022/12/20 01:08:28;;;;;;;11.45;4.45;;;8.70;99.90;;;;;;5040731;28;20155;-81
2022/12/20 01:11:06;;;;;;;8.70;4.38;;;8.40;99.90;;;;;;5041089;28;20456;-80
2022/12/20 01:13:37;;;;;;;7.57;4.40;;;8.50;99.90;;;;;;5011810;28;20048;-83
2022/12/20 01:16:09;;;;;;;8.07;4.38;;;8.80;99.90;;;;;;5038750;28;20053;-85
2022/12/20 01:18:35;;;;;;;10.82;4.50;;;8.80;99.90;;;;;;5028174;28;20122;-85
2022/12/20 01:21:11;;;;;;;6.72;4.13;;;8.60;99.90;;;;;;5020380;28;20049;-84
2022/12/20 01:23:38;;;;;;;8.35;4.28;;;8.70;99.90;;;;;;5044971;28;20056;-84
2022/12/20 01:26:08;;;;;;;9.50;4.28;;;8.60;99.90;;;;;;5041931;28;20061;-80
2022/12/20 01:28:34;;;;;;;10.85;4.10;;;8.60;99.90;;;;;;5018559;28;20040;-81
2022/12/20 01:31:00;;;;;;;5.10;3.70;;;8.80;99.90;;;;;;5068769;28;20060;-82
2022/12/20 01:33:26;;;;;;;12.07;4.25;;;8.80;99.90;;;;;;5034307;28;20401;-83
2022/12/20 01:35:57;;;;;;;6.25;3.70;;;8.70;99.90;;;;;;5033239;28;20033;-81
2022/12/20 01:38:23;;;;;;;14.32;4.57;;;8.50;99.90;;;;;;5013813;28;20037;-79
2022/12/20 01:40:48;;;;;;;9.77;4.40;;;8.60;99.90;;;;;;5013718;28;20119;-82
2022/12/20 01:43:17;;;;;;;9.75;4.30;;;8.70;99.90;;;;;;5052729;28;20041;-86
2022/12/20 01:45:42;;;;;;;6.88;4.32;;;8.50;99.90;;;;;;5034266;28;20036;-83
2022/12/20 01:48:10;;;;;;;8.57;4.72;;;8.50;99.90;;;;;;5036483;28;20063;-82
2022/12/20 01:50:36;;;;;;;7.82;4.25;;;8.60;99.90;;;;;;5037296;28;20103;-83
2022/12/20 01:53:22;;;;;;;7.18;4.20;;;8.60;99.90;;;;;;5034248;28;20059;-82
2022/12/20 01:55:48;;;;;;;7.53;4.38;;;8.60;99.90;;;;;;5032163;28;20099;-84
2022/12/20 01:58:16;;;;;;;7.63;4.18;;;8.60;99.90;;;;;;5034062;28;20369;-83
2022/12/20 02:00:42;;;;;;;8.20;3.95;;;8.40;99.90;;;;;;5034676;28;20489;-81
2022/12/20 02:03:11;;;;;;;7.63;4.40;;;8.60;99.90;;;;;;5063535;28;20157;-85
2022/12/20 02:05:40;;;;;;;9.55;4.10;;;8.70;99.90;;;;;;5032482;28;20045;-84
2022/12/20 02:08:08;;;;;;;6.82;3.80;;;8.30;99.90;;;;;;5060366;28;20048;-84
2022/12/20 02:11:03;;;;;;;8.57;4.18;;;8.60;99.90;;;;;;5027821;28;20040;-83
2022/12/20 02:14:10;;;;;;;6.90;4.23;;;8.60;99.90;;;;;;4989888;28;20863;-82
2022/12/20 02:16:48;;;;;;;8.40;3.97;;;8.40;99.90;;;;;;5019876;28;20052;-86
2022/12/20 02:20:05;;;;;;;7.03;4.00;;;8.50;99.90;;;;;;5007905;28;20549;-81
2022/12/20 02:22:52;;;;;;;9.80;3.85;;;8.60;99.90;;;;;;4944021;28;20078;-85
2022/12/20 02:25:29;;;;;;;6.70;3.90;;;8.50;99.90;;;;;;4933198;28;20050;-81
2022/12/20 02:28:04;;;;;;;9.13;4.68;;;8.70;99.90;;;;;;4969020;28;20636;-83
2022/12/20 02:30:36;;;;;;;7.68;4.10;;;8.40;99.90;;;;;;4951996;28;20427;-84
2022/12/20 02:33:05;;;;;;;10.35;4.10;;;8.70;99.90;;;;;;4952261;28;20121;-81
2022/12/20 02:35:34;;;;;;;6.32;3.88;;;8.50;99.90;;;;;;4951016;28;20479;-82
2022/12/20 02:38:03;;;;;;;14.45;4.00;;;8.80;99.90;;;;;;4945055;28;20050;-83
2022/12/20 02:40:38;;;;;;;6.22;3.90;;;8.50;99.90;;;;;;4951498;28;20526;-85
2022/12/20 02:45:14;;;;;;;6.90;3.80;;;8.70;99.90;;;;;;4949073;28;20055;-81
2022/12/20 02:45:56;;;;;;;7.85;4.00;;;8.70;99.90;;;;;;4946907;28;20540;-82
2022/12/20 02:48:24;;;;;;;4.82;3.80;;;8.70;99.90;;;;;;4950154;28;20156;-85
2022/12/20 02:50:53;;;;;;;7.72;3.97;;;8.70;99.90;;;;;;4956018;28;20059;-82
2022/12/20 02:53:20;;;;;;;5.05;3.60;;;8.80;99.90;;;;;;5004686;28;20077;-85
2022/12/20 02:56:26;;;;;;;9.95;4.38;;;8.70;99.90;;;;;;5023708;28;20124;-84
2022/12/20 02:59:04;;;;;;;6.18;3.72;;;8.90;99.90;;;;;;5007506;28;20319;-80
2022/12/20 03:01:36;;;;;;;7.25;3.85;;;8.70;99.90;;;;;;5000572;28;20030;-82
2022/12/20 03:04:03;;;;;;;8.20;4.30;;;8.80;99.90;;;;;;5002810;28;20107;-82
2022/12/20 03:06:29;;;;;;;7.88;4.10;;;8.90;99.90;;;;;;4986836;28;20037;-82
2022/12/20 03:08:55;;;;;;;8.48;4.28;;;8.60;99.90;;;;;;5000102;28;20049;-81
2022/12/20 03:11:21;;;;;;;6.72;3.85;;;8.50;99.90;;;;;;4991161;28;20073;-84
2022/12/20 03:13:47;;;;;;;6.13;4.07;;;8.90;99.90;;;;;;5006012;28;20260;-82
2022/12/20 03:16:13;;;;;;;7.03;4.30;;;8.90;99.90;;;;;;5002192;28;20058;-83
2022/12/20 03:18:38;;;;;;;7.90;4.03;;;9.00;99.90;;;;;;4989326;28;20045;-86
2022/12/20 03:21:04;;;;;;;12.00;4.40;;;8.80;99.90;;;;;;4987581;28;20053;-82
2022/12/20 03:23:30;;;;;;;7.88;4.55;;;8.90;99.90;;;;;;4990814;28;20046;-85
2022/12/20 03:25:56;;;;;;;5.75;4.00;;;8.60;99.90;;;;;;4992017;28;20038;-84
2022/12/20 03:28:22;;;;;;;7.60;3.80;;;8.70;99.90;;;;;;4989207;28;20504;-84
2022/12/20 03:30:48;;;;;;;7.10;4.28;;;8.70;99.90;;;;;;4988973;28;20493;-81
2022/12/20 03:33:14;;;;;;;7.10;4.32;;;8.70;99.90;;;;;;4970062;28;20175;-85
2022/12/20 03:35:40;;;;;;;7.78;4.43;;;8.70;99.90;;;;;;5028937;28;20127;-81
2022/12/20 03:38:06;;;;;;;9.52;4.38;;;9.00;99.90;;;;;;5041768;28;20045;-82
2022/12/20 03:40:32;;;;;;;7.70;4.43;;;8.80;99.90;;;;;;5018861;28;20046;-82
2022/12/20 03:42:57;;;;;;;9.15;4.45;;;8.80;99.90;;;;;;5041369;28;20033;-86
2022/12/20 03:45:23;;;;;;;10.55;5.00;;;8.70;99.90;;;;;;5025931;28;20515;-82
2022/12/20 03:47:49;;;;;;;9.93;3.97;;;8.70;99.90;;;;;;5024788;28;20046;-84
2022/12/20 03:50:14;;;;;;;10.07;4.72;;;8.90;99.90;;;;;;5021275;28;20124;-85
2022/12/20 03:52:40;;;;;;;8.15;4.32;;;8.60;99.90;;;;;;5037999;28;20116;-84
2022/12/20 03:55:08;;;;;;;8.90;4.28;;;8.90;99.90;;;;;;5038591;28;20037;-85
2022/12/20 03:57:34;;;;;;;10.02;4.20;;;9.00;99.90;;;;;;5026998;28;20223;-85
2022/12/20 04:00:01;;;;;;;7.32;4.32;;;8.90;99.90;;;;;;5035928;28;20198;-80
2022/12/20 04:02:29;;;;;;;8.23;4.60;;;8.90;99.90;;;;;;5046302;28;20037;-80
2022/12/20 04:04:55;;;;;;;6.30;4.00;;;8.80;99.90;;;;;;5055242;28;20199;-81
2022/12/20 04:11:17;;;;;;;7.38;4.18;;;9.00;99.90;;;;;;5044832;28;20079;-82
2022/12/20 04:13:47;;;;;;;7.30;4.55;;;8.70;99.90;;;;;;5043310;28;20052;-82
2022/12/20 04:16:15;;;;;;;9.75;4.50;;;9.10;99.90;;;;;;5025442;28;20041;-83
2022/12/20 04:18:41;;;;;;;8.32;4.90;;;9.10;99.90;;;;;;5041249;28;20391;-82
2022/12/20 04:21:08;;;;;;;8.15;4.30;;;8.70;99.90;;;;;;5048036;28;20059;-83
2022/12/20 04:23:34;;;;;;;7.93;4.68;;;9.10;99.90;;;;;;5045962;28;20037;-83
2022/12/20 04:26:01;;;;;;;7.22;3.97;;;9.10;99.90;;;;;;5048445;28;20095;-82
2022/12/20 04:28:27;;;;;;;10.35;4.97;;;8.80;99.90;;;;;;5050309;28;20041;-82
2022/12/20 04:30:53;;;;;;;11.70;4.68;;;9.30;99.90;;;;;;5036525;28;20045;-80
2022/12/20 04:33:19;;;;;;;8.25;5.03;;;8.90;99.90;;;;;;5052826;28;20364;-85
2022/12/20 04:35:44;;;;;;;11.98;5.43;;;8.90;99.90;;;;;;5035900;28;20508;-80
2022/12/20 04:38:10;;;;;;;8.10;5.00;;;8.90;99.90;;;;;;5053251;28;20049;-83
2022/12/20 04:40:35;;;;;;;9.60;4.70;;;8.90;99.90;;;;;;5037059;28;20050;-85
2022/12/20 04:43:02;;;;;;;7.57;4.90;;;8.90;99.90;;;;;;5034102;28;20113;-83
2022/12/20 04:45:28;;;;;;;9.93;4.93;;;9.10;99.90;;;;;;5034973;28;20055;-84
2022/12/20 04:47:53;;;;;;;9.38;5.03;;;9.00;99.90;;;;;;5068419;28;20073;-83
2022/12/20 04:50:19;;;;;;;6.97;5.00;;;8.90;99.90;;;;;;5033173;28;20148;-83
2022/12/20 04:55:29;;;;;;;8.52;4.78;;;9.40;99.90;;;;;;5046417;28;20377;-83
2022/12/20 04:57:54;;;;;;;8.32;5.28;;;9.10;99.90;;;;;;5039705;28;20082;-82
2022/12/20 05:00:21;;;;;;;9.65;4.88;;;9.00;99.90;;;;;;5050039;28;20376;-80
2022/12/20 05:02:46;;;;;;;9.32;5.13;;;9.00;99.90;;;;;;5031184;28;20507;-83
2022/12/20 05:05:14;;;;;;;11.13;5.03;;;9.00;99.90;;;;;;5018740;28;20041;-84
2022/12/20 05:07:39;;;;;;;10.20;5.10;;;9.00;99.90;;;;;;5031223;28;20397;-84
2022/12/20 05:10:05;;;;;;;9.13;4.50;;;9.40;99.90;;;;;;5043343;28;20127;-83
2022/12/20 05:12:31;;;;;;;9.80;4.75;;;9.30;99.90;;;;;;5017897;28;20152;-84
2022/12/20 05:14:57;;;;;;;8.25;4.90;;;9.20;99.90;;;;;;5033762;28;20104;-82
2022/12/20 05:17:22;;;;;;;8.25;4.50;;;9.40;99.90;;;;;;5051025;28;20103;-82
2022/12/20 05:19:48;;;;;;;7.18;4.68;;;9.30;99.90;;;;;;5069524;28;20075;-81
2022/12/20 05:28:15;;;;;;;6.03;4.40;;;9.30;99.90;;;;;;5031396;28;20064;-80
2022/12/20 05:30:40;;;;;;;6.93;4.85;;;9.40;99.90;;;;;;5037164;28;20452;-82
2022/12/20 05:33:06;;;;;;;7.40;4.65;;;9.20;99.90;;;;;;5038487;28;20064;-84
2022/12/20 05:35:32;;;;;;;12.13;4.50;;;9.50;99.90;;;;;;5037281;28;20118;-83
2022/12/20 05:37:57;;;;;;;15.85;4.82;;;9.60;99.90;;;;;;5038316;28;20052;-83
2022/12/20 05:40:23;;;;;;;7.40;4.38;;;9.50;99.90;;;;;;5071409;28;20113;-83
2022/12/20 05:42:48;;;;;;;7.18;4.45;;;9.50;99.90;;;;;;5035284;28;20048;-80
2022/12/20 05:45:14;;;;;;;6.75;4.15;;;9.40;99.90;;;;;;5052400;28;20040;-84
2022/12/20 05:47:40;;;;;;;8.07;4.15;;;9.70;99.90;;;;;;5049206;28;20406;-83
2022/12/20 05:50:06;;;;;;;8.95;4.35;;;9.50;99.90;;;;;;5016653;28;20033;-82
2022/12/20 05:52:32;;;;;;;8.02;4.32;;;9.70;99.90;;;;;;5038813;28;20076;-82
2022/12/20 05:54:57;;;;;;;7.90;3.53;;;9.30;99.90;;;;;;5024062;28;20069;-82
2022/12/20 05:57:23;;;;;;;10.48;4.15;;;9.70;99.90;;;;;;5037301;28;20033;-84
2022/12/20 05:59:48;;;;;;;8.52;3.75;;;9.40;99.90;;;;;;5065852;28;20045;-85
2022/12/20 06:02:14;;;;;;;9.35;4.15;;;9.50;99.90;;;;;;5040614;28;20041;-86
2022/12/20 06:04:40;;;;;;;6.60;3.85;;;9.60;99.90;;;;;;5014065;28;20103;-87
2022/12/20 06:10:47;;;;;;;6.78;4.15;;;9.50;99.90;;;;;;5036197;28;20028;-83
2022/12/20 06:13:15;;;;;;;6.50;3.85;;;9.40;99.90;;;;;;5033905;28;20069;-81
2022/12/20 06:15:41;;;;;;;6.45;4.10;;;9.50;99.90;;;;;;5033318;28;20087;-85
2022/12/20 06:18:07;;;;;;;6.45;4.03;;;9.70;99.90;;;;;;5038089;28;20048;-82
2022/12/20 06:20:34;;;;;;;7.25;3.78;;;9.50;99.90;;;;;;5050566;28;20061;-82
2022/12/20 06:22:59;;;;;;;10.65;3.58;;;9.60;99.90;;;;;;5030342;28;20045;-82
2022/12/20 06:25:27;;;;;;;8.65;3.90;;;9.70;99.90;;;;;;5037285;28;20110;-82
2022/12/20 06:27:53;;;;;;;10.00;3.95;;;9.70;99.90;;;;;;5037000;28;20045;-85
2022/12/20 06:30:19;;;;;;;8.48;3.85;;;9.40;99.90;;;;;;5036329;28;20083;-82
2022/12/20 06:32:45;;;;;;;6.78;3.90;;;9.50;99.90;;;;;;5035829;28;20068;-85
2022/12/20 06:35:11;;;;;;;5.72;3.90;;;9.80;99.90;;;;;;5044478;28;20034;-83
2022/12/20 06:37:39;;;;;;;9.93;4.35;;;9.50;99.90;;;;;;5032793;28;20041;-82
2022/12/20 06:40:06;;;;;;;7.22;3.85;;;9.70;99.90;;;;;;5022023;28;20133;-83
2022/12/20 06:42:32;;;;;;;7.18;3.40;;;9.50;99.90;;;;;;5021698;28;20118;-83
2022/12/20 06:44:58;;;;;;;7.13;3.65;;;9.90;99.90;;;;;;5038907;28;20041;-82
2022/12/20 06:47:23;;;;;;;7.03;3.53;;;9.60;99.90;;;;;;5019817;28;20109;-82
2022/12/20 06:49:50;;;;;;;7.70;3.60;;;9.80;99.90;;;;;;5013909;28;20033;-83
2022/12/20 06:52:18;;;;;;;5.72;3.67;;;9.70;99.90;;;;;;5037450;28;20490;-84
2022/12/20 06:54:43;;;;;;;6.80;3.65;;;10.00;99.90;;;;;;5075902;28;20035;-83
2022/12/20 06:57:09;;;;;;;9.82;3.83;;;9.70;99.90;;;;;;5039603;28;20037;-86
2022/12/20 06:59:35;;;;;;;7.32;3.90;;;9.80;99.90;;;;;;5056139;28;20064;-86
2022/12/20 07:02:00;;;;;;;6.68;3.70;;;10.00;99.90;;;;;;5025034;28;20102;-85
2022/12/20 07:04:26;;;;;;;5.88;4.13;;;9.60;99.90;;;;;;5041439;28;20120;-83
2022/12/20 07:06:52;;;;;;;7.70;4.10;;;10.00;99.90;;;;;;5046402;28;20094;-86
2022/12/20 07:12:59;;;;;;;11.00;4.63;;;9.60;99.90;;;;;;5041638;28;20057;-83
2022/12/20 07:15:24;;;;;;;11.13;5.10;;;9.90;99.90;;;;;;5046508;28;20535;-83
2022/12/20 07:17:50;;;;;;;11.63;5.18;;;9.90;99.90;;;;;;5042550;28;20141;-83
2022/12/20 07:20:17;;;;;;;8.65;5.38;;;9.60;99.90;;;;;;5042559;28;20413;-81
2022/12/20 07:22:43;;;;;;;11.07;5.65;;;9.50;99.90;;;;;;5061153;28;20483;-85
2022/12/20 07:25:09;;;;;;;9.07;5.38;;;9.50;99.90;;;;;;5070889;28;20045;-83
2022/12/20 07:27:35;;;;;;;7.47;5.70;;;9.50;99.90;;;;;;5027119;28;20498;-82
2022/12/20 07:30:02;;;;;;;11.50;5.93;;;9.40;99.90;;;;;;5044765;28;20044;-79
2022/12/20 07:32:28;;;;;;;8.48;5.70;;;9.40;99.90;;;;;;5057477;28;20048;-83
2022/12/20 07:34:54;;;;;;;7.85;5.72;;;9.60;99.90;;;;;;5025589;28;20044;-83
2022/12/20 07:37:38;;;;;;;10.07;6.18;;;10.00;99.90;;;;;;5045029;28;20223;-83
2022/12/20 07:40:04;;;;;;;10.47;6.20;;;9.40;99.90;;;;;;5026245;28;20088;-82
2022/12/20 07:42:30;;;;;;;9.45;6.55;;;9.70;99.90;;;;;;5026122;28;20061;-83
2022/12/20 07:44:56;;;;;;;12.15;6.43;;;9.40;99.90;;;;;;5048889;28;20089;-82
2022/12/20 07:47:21;;;;;;;10.73;6.70;;;9.40;99.90;;;;;;5040172;28;20045;-85
2022/12/20 07:49:48;;;;;;;12.10;6.95;;;9.60;99.90;;;;;;5026928;28;20053;-83
2022/12/20 07:52:18;;;;;;;9.75;6.75;;;9.50;99.90;;;;;;5041484;28;20049;-85
2022/12/20 07:54:49;;;;;;;9.73;6.88;;;9.90;99.90;;;;;;5071063;28;20068;-82
2022/12/20 07:57:19;;;;;;;11.55;6.53;;;9.80;99.90;;;;;;5032497;28;20132;-85
2022/12/20 07:59:50;;;;;;;11.30;7.20;;;9.70;99.90;;;;;;5041673;28;20071;-82
2022/12/20 08:02:25;;;;;;;8.43;6.82;;;10.10;99.90;;;;;;5051319;28;20123;-81
2022/12/20 08:04:53;;;;;;;11.18;7.07;;;9.50;99.90;;;;;;5065554;28;20185;-85
2022/12/20 08:07:19;;;;;;;8.52;6.60;;;9.80;99.90;;;;;;5035875;28;20472;-87
2022/12/20 08:09:45;;;;;;;10.88;6.90;;;9.70;99.90;;;;;;5020114;28;20051;-81
2022/12/20 08:12:14;;;;;;;7.60;6.60;;;9.60;99.90;;;;;;5040606;28;20057;-81
2022/12/20 08:14:40;;;;;;;10.85;7.07;;;9.90;99.90;;;;;;5041265;28;20053;-83
2022/12/20 08:17:06;;;;;;;10.18;6.43;;;9.60;99.90;;;;;;5040465;28;20037;-84
2022/12/20 08:19:32;;;;;;;12.45;6.45;;;10.00;99.90;;;;;;5058524;28;20107;-81
2022/12/20 08:21:58;;;;;;;11.27;6.50;;;9.60;99.90;;;;;;5030800;28;20061;-81
2022/12/20 08:24:24;;;;;;;8.48;5.80;;;9.60;99.90;;;;;;5027004;28;20050;-83
2022/12/20 08:26:51;;;;;;;9.57;5.53;;;9.90;99.90;;;;;;5066864;28;20072;-86
2022/12/20 08:29:17;;;;;;;8.50;5.47;;;9.80;99.90;;;;;;5016860;28;20037;-84
2022/12/20 08:31:43;;;;;;;11.45;5.75;;;9.70;99.90;;;;;;5034194;28;20060;-82
2022/12/20 08:34:09;;;;;;;7.43;4.85;;;10.10;99.90;;;;;;5054233;28;20045;-84
2022/12/20 08:36:35;;;;;;;8.40;5.32;;;9.70;99.90;;;;;;5043613;28;20041;-86
2022/12/20 08:39:02;;;;;;;10.38;5.28;;;10.10;99.90;;;;;;5037632;28;20072;-85
2022/12/20 08:41:28;;;;;;;7.50;4.57;;;9.70;99.90;;;;;;5027014;28;20109;-83
2022/12/20 08:43:54;;;;;;;9.68;4.70;;;10.00;99.90;;;;;;5040054;28;20134;-81
2022/12/20 08:46:21;;;;;;;8.52;4.93;;;9.70;99.90;;;;;;5049111;28;20052;-81
2022/12/20 08:48:46;;;;;;;7.97;4.65;;;10.00;99.90;;;;;;5016773;28;20088;-86
2022/12/20 08:51:12;;;;;;;10.20;4.90;;;10.10;99.90;;;;;;5037612;28;20037;-83
2022/12/20 08:53:38;;;;;;;8.25;4.45;;;10.00;99.90;;;;;;5025001;28;20045;-83
2022/12/20 08:56:13;;;;;;;8.18;4.40;;;10.00;99.90;;;;;;5020825;28;20046;-85
2022/12/20 08:58:40;;;;;;;10.50;4.60;;;10.20;99.90;;;;;;5048327;28;20492;-85
2022/12/20 09:01:08;;;;;;;7.07;4.35;;;9.80;99.90;;;;;;5020295;28;20064;-83
2022/12/20 09:03:36;;;;;;;8.35;4.18;;;10.10;99.90;;;;;;5050357;28;20381;-85
2022/12/20 09:06:05;;;;;;;9.88;3.97;;;10.00;99.90;;;;;;5035219;28;20044;-82
2022/12/20 09:08:35;;;;;;;6.97;3.70;;;9.80;99.90;;;;;;5052429;28;20110;-83
2022/12/20 09:11:15;;;;;;;5.60;3.40;;;10.20;99.90;;;;;;5037736;28;20073;-81
2022/12/20 09:13:43;;;;;;;7.07;3.65;;;10.00;99.90;;;;;;5036103;28;20040;-83
2022/12/20 09:16:10;;;;;;;7.32;3.70;;;10.10;99.90;;;;;;5046956;28;20068;-87
2022/12/20 09:18:36;;;;;;;5.82;3.40;;;9.90;99.90;;;;;;5053294;28;20049;-81
2022/12/20 09:21:04;;;;;;;4.18;3.20;;;10.10;99.90;;;;;;5039421;28;20051;-80
2022/12/20 09:23:30;;;;;;;7.53;3.35;;;10.00;99.90;;;;;;5053770;28;20045;-82
2022/12/20 09:26:02;;;;;;;5.57;3.42;;;10.00;99.90;;;;;;5037784;28;20049;-85
2022/12/20 09:28:29;;;;;;;6.03;3.55;;;10.10;99.90;;;;;;5026955;28;20358;-83
2022/12/20 09:31:02;;;;;;;5.72;3.28;;;10.30;99.90;;;;;;5016174;28;20385;-85
2022/12/20 09:33:29;;;;;;;8.25;3.38;;;10.20;99.90;;;;;;5034165;28;20052;-83
2022/12/20 09:35:56;;;;;;;5.13;2.97;;;10.40;99.90;;;;;;5064929;28;20064;-80
2022/12/20 09:38:22;;;;;;;9.10;3.17;;;10.30;99.90;;;;;;5022245;28;20501;-82
2022/12/20 09:40:51;;;;;;;4.50;2.75;;;10.20;99.90;;;;;;5040087;28;20119;-86
2022/12/20 09:43:18;;;;;;;5.22;3.22;;;10.50;99.90;;;;;;5028102;28;20080;-82
2022/12/20 09:45:51;;;;;;;7.38;3.17;;;10.60;99.90;;;;;;5032620;28;20430;-87
2022/12/20 09:48:32;;;;;;;5.88;2.80;;;10.40;99.90;;;;;;5035414;28;20044;-84
2022/12/20 09:51:06;;;;;;;4.85;2.88;;;10.40;99.90;;;;;;5039090;28;20060;-85
2022/12/20 09:53:42;;;;;;;6.32;3.28;;;10.50;99.90;;;;;;5035292;28;20045;-84
2022/12/20 09:56:15;;;;;;;5.65;3.00;;;10.60;99.90;;;;;;5048345;28;20037;-84
2022/12/20 09:58:58;;;;;;;6.75;3.20;;;10.60;99.90;;;;;;5060091;28;20076;-84
2022/12/20 10:01:26;;;;;;;7.00;2.38;;;10.80;99.90;;;;;;5039024;28;20072;-82
2022/12/20 10:03:53;;;;;;;4.78;3.08;;;10.70;99.90;;;;;;5071759;28;20057;-84
2022/12/20 10:06:21;;;;;;;5.88;2.72;;;10.70;99.90;;;;;;5046781;28;20049;-83
2022/12/20 10:13:01;;;;;;;8.18;2.80;;;10.80;99.90;;;;;;5049724;28;20095;-81
2022/12/20 10:15:48;;;;;;;4.75;2.80;;;10.60;99.90;;;;;;5068589;28;20223;-82
2022/12/20 10:18:20;;;;;;;5.18;2.70;;;10.60;99.90;;;;;;5051892;28;20068;-85
2022/12/20 10:21:13;;;;;;;6.68;2.90;;;10.70;99.90;;;;;;5027164;28;20069;-86
2022/12/20 10:23:50;;;;;;;5.72;2.50;;;10.50;99.90;;;;;;5058469;28;20487;-85
2022/12/20 10:26:16;;;;;;;4.10;2.83;;;10.60;99.90;;;;;;5024764;28;20140;-87
2022/12/20 10:28:41;;;;;;;6.95;3.10;;;10.70;99.90;;;;;;5042045;28;20033;-83
2022/12/20 10:31:13;;;;;;;8.80;3.08;;;10.70;99.90;;;;;;5045196;28;20041;-86
2022/12/20 10:33:39;;;;;;;12.07;3.00;;;10.50;99.90;;;;;;5029487;28;20049;-83
2022/12/20 10:36:25;;;;;;;8.52;2.97;;;10.60;99.90;;;;;;5044945;28;20302;-81
2022/12/20 10:38:57;;;;;;;5.50;3.17;;;10.70;99.90;;;;;;5041080;28;20061;-82
2022/12/20 10:41:25;;;;;;;5.72;2.88;;;10.90;99.90;;;;;;5054276;28;20054;-83
2022/12/20 10:43:53;;;;;;;6.70;2.88;;;10.60;99.90;;;;;;5015145;28;20067;-85
2022/12/20 10:46:19;;;;;;;5.57;2.67;;;10.80;99.90;;;;;;5018656;28;20052;-82
2022/12/20 10:48:47;;;;;;;9.00;2.80;;;10.80;99.90;;;;;;5024356;28;20116;-84
2022/12/20 10:51:21;;;;;;;6.88;3.17;;;10.70;99.90;;;;;;5041371;28;20618;-83
2022/12/20 10:54:37;;;;;;;4.20;2.33;;;10.70;99.90;;;;;;5047806;28;20045;-80
2022/12/20 10:57:25;;;;;;;9.10;3.00;;;10.90;99.90;;;;;;5033959;28;20539;-84
2022/12/20 11:00:03;;;;;;;8.63;3.00;;;11.00;99.90;;;;;;5024889;28;20128;-83
2022/12/20 11:02:38;;;;;;;5.45;2.80;;;10.90;99.90;;;;;;5011746;28;20210;-85
2022/12/20 11:05:10;;;;;;;7.25;2.80;;;10.70;99.90;;;;;;5035472;28;20083;-85
2022/12/20 11:07:56;;;;;;;5.32;3.08;;;10.80;99.90;;;;;;5025750;28;20046;-84
2022/12/20 11:10:24;;;;;;;8.15;3.20;;;10.70;99.90;;;;;;5029152;28;20052;-84
2022/12/20 11:12:54;;;;;;;8.13;2.90;;;10.80;99.90;;;;;;5031506;28;20431;-82
2022/12/20 11:15:23;;;;;;;13.52;3.35;;;10.70;99.90;;;;;;5030352;28;20049;-81
2022/12/20 11:18:01;;;;;;;6.63;3.28;;;10.80;99.90;;;;;;5028972;28;20053;-86
2022/12/20 11:20:53;;;;;;;5.78;3.05;;;10.40;99.90;;;;;;5044435;28;20507;-83
2022/12/20 11:23:58;;;;;;;8.73;3.20;;;10.50;99.90;;;;;;5030838;28;20071;-86
2022/12/20 11:26:52;;;;;;;6.38;3.58;;;10.70;99.90;;;;;;4988025;28;20052;-83
2022/12/20 11:29:35;;;;;;;11.50;3.42;;;10.40;99.90;;;;;;4979189;28;20078;-84
2022/12/20 11:32:36;;;;;;;5.25;3.00;;;10.40;99.90;;;;;;4969366;28;20266;-81
2022/12/20 11:35:13;;;;;;;8.82;3.33;;;10.30;99.90;;;;;;4964235;28;20054;-83
2022/12/20 11:37:51;;;;;;;7.43;3.38;;;10.50;99.90;;;;;;4978230;28;20053;-83
2022/12/20 11:44:36;;;;;;;7.60;3.10;;;10.30;99.90;;;;;;4969637;28;20073;-83
2022/12/20 11:47:18;;;;;;;6.40;3.38;;;10.50;99.90;;;;;;4982822;28;20050;-84
2022/12/20 11:50:18;;;;;;;5.28;3.17;;;10.40;99.90;;;;;;4986482;28;20054;-83
2022/12/20 11:52:55;;;;;;;7.57;3.42;;;10.30;99.90;;;;;;4972551;28;20054;-83
2022/12/20 11:55:36;;;;;;;5.03;2.97;;;10.60;99.90;;;;;;4974611;28;20053;-82
2022/12/20 11:58:13;;;;;;;5.10;3.58;;;10.30;99.90;;;;;;4972136;28;20141;-81
2022/12/20 12:00:42;;;;;;;6.65;3.58;;;10.60;99.90;;;;;;4979413;28;20094;-87
2022/12/20 12:03:46;;;;;;;8.93;3.95;;;10.50;99.90;;;;;;4958957;28;20050;-82
2022/12/20 12:06:24;;;;;;;6.53;3.50;;;10.20;99.90;;;;;;4992828;28;20133;-84
2022/12/20 12:09:00;;;;;;;6.43;3.78;;;10.10;99.90;;;;;;4987825;28;20042;-83
2022/12/20 12:11:31;;;;;;;9.00;3.75;;;10.10;99.90;;;;;;4981362;28;20069;-85
2022/12/20 12:13:58;;;;;;;4.97;3.80;;;10.30;99.90;;;;;;4999702;28;20046;-81
2022/12/20 12:16:27;;;;;;;8.20;3.90;;;10.40;99.90;;;;;;4977419;28;20045;-82
2022/12/20 12:18:59;;;;;;;8.35;4.22;;;10.20;99.90;;;;;;5007350;28;20547;-84
2022/12/20 12:21:39;;;;;;;10.43;3.60;;;10.50;99.90;;;;;;5003423;28;20077;-88
2022/12/20 12:24:41;;;;;;;8.45;3.90;;;10.10;99.90;;;;;;5026398;28;20484;-84
2022/12/20 12:27:21;;;;;;;8.98;4.22;;;10.20;99.90;;;;;;5057744;28;20071;-81
2022/12/20 12:29:47;;;;;;;13.25;4.43;;;10.50;99.90;;;;;;5031082;28;20140;-81
2022/12/20 12:32:43;;;;;;;9.30;4.53;;;10.10;99.90;;;;;;5047504;28;20039;-80
2022/12/20 12:35:31;;;;;;;6.53;4.70;;;10.30;99.90;;;;;;5047324;28;20045;-84
2022/12/20 12:38:04;;;;;;;7.53;4.65;;;10.00;99.90;;;;;;5064011;28;20051;-83
2022/12/20 12:40:44;;;;;;;9.15;4.82;;;10.20;99.90;;;;;;5062103;28;20376;-83
2022/12/20 12:43:30;;;;;;;8.05;4.53;;;10.20;99.90;;;;;;5048686;28;20120;-81
2022/12/20 12:46:01;;;;;;;9.00;4.55;;;10.20;99.90;;;;;;5068221;28;20053;-81
2022/12/20 12:48:56;;;;;;;11.95;4.82;;;9.90;99.90;;;;;;5051267;28;20057;-82
2022/12/20 12:51:27;;;;;;;5.78;5.18;;;10.00;99.90;;;;;;5052030;28;20048;-85
2022/12/20 12:54:01;;;;;;;7.25;4.63;;;10.40;99.90;;;;;;5050094;28;20036;-81
2022/12/20 12:56:27;;;;;;;6.00;5.10;;;10.40;99.90;;;;;;5037574;28;20119;-81
2022/12/20 12:59:05;;;;;;;7.93;4.90;;;10.10;99.90;;;;;;5049240;28;20476;-80
2022/12/20 13:01:55;;;;;;;10.02;5.50;;;10.30;99.90;;;;;;5025614;28;20142;-80
2022/12/20 13:04:27;;;;;;;9.75;5.22;;;10.30;99.90;;;;;;5030850;28;20052;-80
2022/12/20 13:07:00;;;;;;;10.13;5.75;;;10.40;99.90;;;;;;5029015;28;20057;-78
2022/12/20 13:09:25;;;;;;;9.27;5.30;;;10.30;99.90;;;;;;5031347;28;20069;-83
2022/12/20 13:11:56;;;;;;;8.70;5.88;;;9.90;99.90;;;;;;5014973;28;20048;-80
2022/12/20 13:14:26;;;;;;;10.85;5.65;;;9.90;99.90;;;;;;5044598;28;20348;-80
2022/12/20 13:17:17;;;;;;;8.70;5.50;;;10.40;99.90;;;;;;5047195;28;20037;-83
2022/12/20 13:19:52;;;;;;;8.75;6.07;;;10.30;99.90;;;;;;5032974;28;20471;-82
2022/12/20 13:22:20;;;;;;;;;;;10.30;99.90;;;;;;5053687;28;20048;-86
2022/12/20 13:24:55;;;;;;;12.38;5.57;;;10.10;99.90;;;;;;5043992;28;19931;-80
2022/12/20 13:27:40;;;;;;;9.88;5.80;;;10.40;99.90;;;;;;5035107;28;20110;-80
2022/12/20 13:30:16;;;;;;;12.38;5.72;;;10.00;99.90;;;;;;5031824;28;20037;-81
2022/12/20 13:32:47;;;;;;;6.95;5.85;;;10.30;99.90;;;;;;5049530;28;20516;-79
2022/12/20 13:35:24;;;;;;;8.85;5.90;;;9.90;99.90;;;;;;5034373;28;20041;-80
2022/12/20 13:38:00;;;;;;;8.73;6.13;;;10.00;99.90;;;;;;5021665;28;20045;-85